Time;durP1;ratioP1;P1;durP2;ratioP2;P2;SDS_P1;SDS_P2;PMS_P1;PMS_P2;Temp;Humidity;BMP_temperature;BMP_pressure;BME280_temperature;BME280_humidity;BME280_pressure;Samples;Min_cycle;Max_cycle;Signal;HPM_P1;HPM_P2
2023/04/22 00:01:38;;;;;;;5.93;4.65;;;;;;;;;;5053298;28;20458;-57
2023/04/22 00:04:04;;;;;;;6.28;5.10;;;;;;;;;;5053521;28;20029;-58
2023/04/22 00:06:30;;;;;;;6.80;4.90;;;;;;;;;;5054008;28;20036;-56
2023/04/22 00:08:56;;;;;;;6.22;5.63;;;;;;;;;;5054649;28;20052;-56
2023/04/22 00:11:22;;;;;;;7.38;6.50;;;;;;;;;;5057019;28;20029;-57
2023/04/22 00:13:48;;;;;;;11.98;7.22;;;;;;;;;;5056741;28;20049;-57
2023/04/22 00:16:15;;;;;;;7.75;5.75;;;;;;;;;;5057245;28;20469;-57
2023/04/22 00:18:41;;;;;;;7.97;6.65;;;;;;;;;;5057103;28;20047;-56
2023/04/22 00:21:07;;;;;;;6.25;5.65;;;;;;;;;;5057240;28;20036;-57
2023/04/22 00:23:33;;;;;;;7.68;6.47;;;;;;;;;;5056424;28;20090;-57
2023/04/22 00:25:59;;;;;;;7.30;6.20;;;;;;;;;;5057061;28;20028;-57
2023/04/22 00:28:25;;;;;;;6.82;5.90;;;;;;;;;;5056960;28;20107;-57
2023/04/22 00:30:51;;;;;;;7.53;6.75;;;;;;;;;;5056695;28;20071;-56
2023/04/22 00:33:17;;;;;;;8.25;6.45;;;;;;;;;;5056611;28;20025;-57
2023/04/22 00:35:44;;;;;;;7.90;6.65;;;;;;;;;;5057208;28;20496;-56
2023/04/22 00:38:10;;;;;;;9.32;6.43;;;;;;;;;;5056151;28;20057;-57
2023/04/22 00:40:36;;;;;;;10.25;7.00;;;;;;;;;;5056536;28;20044;-57
2023/04/22 00:43:02;;;;;;;8.73;5.70;;;;;;;;;;5056783;28;20025;-57
2023/04/22 00:45:29;;;;;;;20.55;6.03;;;;;;;;;;5056855;28;20112;-57
2023/04/22 00:47:56;;;;;;;11.73;6.30;;;;;;;;;;5056341;28;20036;-57
2023/04/22 00:50:22;;;;;;;6.95;5.15;;;;;;;;;;5057023;28;20126;-59
2023/04/22 00:52:48;;;;;;;43.33;8.88;;;;;;;;;;5056760;28;20458;-57
2023/04/22 00:55:14;;;;;;;16.17;6.47;;;;;;;;;;5056703;28;20021;-58
2023/04/22 00:57:40;;;;;;;10.70;4.97;;;;;;;;;;5056145;28;20025;-58
2023/04/22 01:00:08;;;;;;;14.95;5.13;;;;;;;;;;5056521;28;20083;-58
2023/04/22 01:02:35;;;;;;;41.30;7.13;;;;;;;;;;5055967;28;20368;-58
2023/04/22 01:05:02;;;;;;;15.95;6.15;;;;;;;;;;5056290;28;20032;-58
2023/04/22 01:07:28;;;;;;;21.65;5.82;;;;;;;;;;5056686;28;20435;-58
2023/04/22 01:09:54;;;;;;;14.82;6.00;;;;;;;;;;5056178;28;20060;-60
2023/04/22 01:12:20;;;;;;;9.98;7.03;;;;;;;;;;5056615;28;20036;-60
2023/04/22 01:14:46;;;;;;;7.50;5.97;;;;;;;;;;5056426;28;20131;-56
2023/04/22 01:17:13;;;;;;;55.45;9.40;;;;;;;;;;5055739;28;20029;-56
2023/04/22 01:19:40;;;;;;;15.95;8.73;;;;;;;;;;5055806;28;20041;-56
2023/04/22 01:22:07;;;;;;;12.32;8.80;;;;;;;;;;5056158;28;20387;-56
2023/04/22 01:24:33;;;;;;;24.27;9.10;;;;;;;;;;5055917;28;20036;-56
2023/04/22 01:26:59;;;;;;;13.30;9.23;;;;;;;;;;5055886;28;20082;-57
2023/04/22 01:29:25;;;;;;;10.23;8.23;;;;;;;;;;5055481;28;20026;-57
2023/04/22 01:31:52;;;;;;;13.32;8.65;;;;;;;;;;5055453;28;20029;-57
2023/04/22 01:34:18;;;;;;;19.02;9.13;;;;;;;;;;5055478;28;20079;-57
2023/04/22 01:36:44;;;;;;;10.55;7.97;;;;;;;;;;5055914;28;20021;-56
2023/04/22 01:39:10;;;;;;;17.98;7.80;;;;;;;;;;5055602;28;20040;-59
2023/04/22 01:41:36;;;;;;;8.23;7.32;;;;;;;;;;5055217;28;20414;-59
2023/04/22 01:44:03;;;;;;;13.65;6.85;;;;;;;;;;5055172;28;20071;-57
2023/04/22 01:46:29;;;;;;;10.05;7.50;;;;;;;;;;5055742;28;20112;-57
2023/04/22 01:48:55;;;;;;;8.95;7.70;;;;;;;;;;5055409;28;20067;-57
2023/04/22 01:51:22;;;;;;;11.98;9.25;;;;;;;;;;5055090;28;20432;-56
2023/04/22 01:53:48;;;;;;;23.80;9.13;;;;;;;;;;5055795;28;20115;-56
2023/04/22 01:56:14;;;;;;;10.38;8.13;;;;;;;;;;5055543;28;20057;-56
2023/04/22 01:58:41;;;;;;;15.73;8.48;;;;;;;;;;5055005;28;20036;-56
2023/04/22 02:01:10;;;;;;;9.80;8.68;;;;;;;;;;5054841;28;20037;-56
2023/04/22 02:03:37;;;;;;;10.52;9.43;;;;;;;;;;5054849;28;20030;-56
2023/04/22 02:06:03;;;;;;;13.68;9.10;;;;;;;;;;5055206;28;20047;-56
2023/04/22 02:08:29;;;;;;;10.68;7.70;;;;;;;;;;5054669;28;20025;-57
2023/04/22 02:10:55;;;;;;;12.68;7.63;;;;;;;;;;5054783;28;20477;-56
2023/04/22 02:13:21;;;;;;;14.10;8.43;;;;;;;;;;5054583;28;20159;-57
2023/04/22 02:15:47;;;;;;;9.18;8.27;;;;;;;;;;5054473;28;20365;-56
2023/04/22 02:18:13;;;;;;;9.32;8.35;;;;;;;;;;5054865;28;20032;-56
2023/04/22 02:20:39;;;;;;;15.07;8.38;;;;;;;;;;5055247;28;20033;-57
2023/04/22 02:23:05;;;;;;;7.82;7.05;;;;;;;;;;5054095;28;20029;-57
2023/04/22 02:25:31;;;;;;;9.32;8.43;;;;;;;;;;5054985;28;20031;-56
2023/04/22 02:27:57;;;;;;;9.07;8.15;;;;;;;;;;5054401;28;20021;-56
2023/04/22 02:30:23;;;;;;;10.95;7.90;;;;;;;;;;5054640;28;20053;-56
2023/04/22 02:32:49;;;;;;;10.82;8.02;;;;;;;;;;5053700;28;20625;-56
2023/04/22 02:35:15;;;;;;;13.90;8.32;;;;;;;;;;5054329;28;20092;-56
2023/04/22 02:37:41;;;;;;;9.27;8.35;;;;;;;;;;5054272;28;20371;-56
2023/04/22 02:40:07;;;;;;;8.85;7.80;;;;;;;;;;5054141;28;20036;-56
2023/04/22 02:42:33;;;;;;;13.43;8.20;;;;;;;;;;5054050;28;20055;-56
2023/04/22 02:44:59;;;;;;;10.00;8.93;;;;;;;;;;5054025;28;20479;-56
2023/04/22 02:47:25;;;;;;;8.60;6.97;;;;;;;;;;5054054;28;20068;-56
2023/04/22 02:49:51;;;;;;;8.90;6.95;;;;;;;;;;5053707;28;20039;-56
2023/04/22 02:52:17;;;;;;;7.18;6.13;;;;;;;;;;5054315;28;20022;-56
2023/04/22 02:54:43;;;;;;;9.68;6.78;;;;;;;;;;5054225;28;20032;-56
2023/04/22 02:57:09;;;;;;;10.52;8.85;;;;;;;;;;5054300;28;20029;-56
2023/04/22 02:59:35;;;;;;;8.77;7.97;;;;;;;;;;5054111;28;20371;-57
2023/04/22 03:02:01;;;;;;;11.60;8.07;;;;;;;;;;5053839;28;20040;-56
2023/04/22 03:04:28;;;;;;;8.38;7.53;;;;;;;;;;5053874;28;20021;-56
2023/04/22 03:06:55;;;;;;;8.18;7.38;;;;;;;;;;5054049;28;20021;-56
2023/04/22 03:09:21;;;;;;;8.38;7.45;;;;;;;;;;5053701;28;20090;-55
2023/04/22 03:11:47;;;;;;;8.82;7.88;;;;;;;;;;5053656;28;20029;-55
2023/04/22 03:14:13;;;;;;;9.18;7.95;;;;;;;;;;5053692;28;20060;-56
2023/04/22 03:16:39;;;;;;;9.55;7.93;;;;;;;;;;5054493;28;20025;-56
2023/04/22 03:19:05;;;;;;;9.77;7.75;;;;;;;;;;5053943;28;20060;-56
2023/04/22 03:21:31;;;;;;;9.00;7.78;;;;;;;;;;5053736;28;20461;-57
2023/04/22 03:23:58;;;;;;;7.90;6.40;;;;;;;;;;5054146;28;20091;-57
2023/04/22 03:26:24;;;;;;;8.35;7.50;;;;;;;;;;5053318;28;20021;-57
2023/04/22 03:28:50;;;;;;;7.80;6.63;;;;;;;;;;5054105;28;20021;-57
2023/04/22 03:31:16;;;;;;;7.82;6.88;;;;;;;;;;5054020;28;20032;-57
2023/04/22 03:33:42;;;;;;;7.68;6.95;;;;;;;;;;5054152;28;20064;-57
2023/04/22 03:36:08;;;;;;;8.13;6.85;;;;;;;;;;5053882;28;20033;-57
2023/04/22 03:38:34;;;;;;;8.52;7.60;;;;;;;;;;5053550;28;20021;-57
2023/04/22 03:40:59;;;;;;;8.90;7.75;;;;;;;;;;5053745;28;20029;-57
2023/04/22 03:43:25;;;;;;;8.15;7.40;;;;;;;;;;5055372;28;20383;-56
2023/04/22 03:45:51;;;;;;;8.23;7.25;;;;;;;;;;5057635;28;20051;-57
2023/04/22 03:48:17;;;;;;;10.02;7.28;;;;;;;;;;5058086;28;20032;-57
2023/04/22 03:50:43;;;;;;;9.43;6.60;;;;;;;;;;5057426;28;20029;-58
2023/04/22 03:53:09;;;;;;;7.13;6.43;;;;;;;;;;5057429;28;20029;-57
2023/04/22 03:55:35;;;;;;;7.57;6.72;;;;;;;;;;5057433;28;20036;-57
2023/04/22 03:58:01;;;;;;;8.63;6.07;;;;;;;;;;5057293;28;20029;-57
2023/04/22 04:00:27;;;;;;;8.63;5.65;;;;;;;;;;5057725;28;20116;-55
2023/04/22 04:02:53;;;;;;;7.75;4.93;;;;;;;;;;5057551;28;20029;-55
2023/04/22 04:05:19;;;;;;;7.72;6.38;;;;;;;;;;5057752;28;20033;-56
2023/04/22 04:07:45;;;;;;;10.23;5.80;;;;;;;;;;5057171;28;20119;-55
2023/04/22 04:10:11;;;;;;;6.95;5.45;;;;;;;;;;5057386;28;20072;-57
2023/04/22 04:12:37;;;;;;;5.40;4.90;;;;;;;;;;5057045;28;20163;-56
2023/04/22 04:15:03;;;;;;;8.55;5.93;;;;;;;;;;5057018;28;20045;-56
2023/04/22 04:17:29;;;;;;;5.95;5.35;;;;;;;;;;5057037;28;20052;-57
2023/04/22 04:19:55;;;;;;;6.47;5.43;;;;;;;;;;5056857;28;20036;-57
2023/04/22 04:22:22;;;;;;;6.32;5.38;;;;;;;;;;5057109;28;20025;-57
2023/04/22 04:24:48;;;;;;;5.40;4.90;;;;;;;;;;5056811;28;20025;-57
2023/04/22 04:27:14;;;;;;;5.53;4.97;;;;;;;;;;5057080;28;20506;-56
2023/04/22 04:29:41;;;;;;;5.00;3.92;;;;;;;;;;5057546;28;20024;-55
2023/04/22 04:32:08;;;;;;;4.10;3.70;;;;;;;;;;5056669;28;20494;-57
2023/04/22 04:34:35;;;;;;;5.88;4.65;;;;;;;;;;5057210;28;20021;-57
2023/04/22 04:37:01;;;;;;;6.00;4.65;;;;;;;;;;5057457;28;20025;-57
2023/04/22 04:39:27;;;;;;;6.65;5.15;;;;;;;;;;5056481;28;20025;-57
2023/04/22 04:41:57;;;;;;;6.30;5.30;;;;;;;;;;5057057;28;20115;-56
2023/04/22 04:44:25;;;;;;;6.43;4.47;;;;;;;;;;5056390;28;20036;-57
2023/04/22 04:46:51;;;;;;;5.25;4.45;;;;;;;;;;5056933;28;20358;-57
2023/04/22 04:49:17;;;;;;;5.57;4.47;;;;;;;;;;5056701;28;20029;-56
2023/04/22 04:51:43;;;;;;;3.47;2.95;;;;;;;;;;5055997;28;20031;-57
2023/04/22 04:54:09;;;;;;;4.93;3.20;;;;;;;;;;5055491;28;20021;-57
2023/04/22 04:56:35;;;;;;;3.97;3.20;;;;;;;;;;5056218;28;20478;-57
2023/04/22 04:59:01;;;;;;;4.45;2.63;;;;;;;;;;5056785;28;20029;-57
2023/04/22 05:01:27;;;;;;;3.92;3.28;;;;;;;;;;5056083;28;20037;-57
2023/04/22 05:03:53;;;;;;;4.15;3.05;;;;;;;;;;5056142;28;20033;-57
2023/04/22 05:06:19;;;;;;;4.13;2.92;;;;;;;;;;5055852;28;20100;-57
2023/04/22 05:08:45;;;;;;;2.97;2.05;;;;;;;;;;5056593;28;20504;-57
2023/04/22 05:11:11;;;;;;;2.58;2.05;;;;;;;;;;5055872;28;20039;-58
2023/04/22 05:13:37;;;;;;;3.53;2.10;;;;;;;;;;5055900;28;20029;-57
2023/04/22 05:16:03;;;;;;;2.95;1.83;;;;;;;;;;5055672;28;20044;-56
2023/04/22 05:18:29;;;;;;;3.58;2.50;;;;;;;;;;5056128;28;20422;-58
2023/04/22 05:20:57;;;;;;;2.85;2.00;;;;;;;;;;5055661;28;20067;-57
2023/04/22 05:23:23;;;;;;;2.63;1.88;;;;;;;;;;5055724;28;20060;-58
2023/04/22 05:25:49;;;;;;;2.50;1.98;;;;;;;;;;5056203;28;20446;-58
2023/04/22 05:28:15;;;;;;;2.58;1.73;;;;;;;;;;5056085;28;20040;-58
2023/04/22 05:30:41;;;;;;;3.00;1.88;;;;;;;;;;5055645;28;20029;-58
2023/04/22 05:33:07;;;;;;;2.92;2.00;;;;;;;;;;5055241;28;20028;-58
2023/04/22 05:35:34;;;;;;;2.10;1.40;;;;;;;;;;5055507;28;20025;-57
2023/04/22 05:38:00;;;;;;;2.58;1.85;;;;;;;;;;5055419;28;20063;-58
2023/04/22 05:40:26;;;;;;;2.22;1.63;;;;;;;;;;5055528;28;20037;-58
2023/04/22 05:42:52;;;;;;;2.25;1.38;;;;;;;;;;5055531;28;20139;-58
2023/04/22 05:45:18;;;;;;;1.83;1.40;;;;;;;;;;5055269;28;20079;-58
2023/04/22 05:47:44;;;;;;;2.70;1.88;;;;;;;;;;5055244;28;20032;-58
2023/04/22 05:50:10;;;;;;;2.72;1.90;;;;;;;;;;5055149;28;20039;-58
2023/04/22 05:52:36;;;;;;;1.95;1.38;;;;;;;;;;5055168;28;20121;-56
2023/04/22 05:55:02;;;;;;;3.53;1.83;;;;;;;;;;5055166;28;20470;-58
2023/04/22 05:57:28;;;;;;;5.00;2.17;;;;;;;;;;5055673;28;20108;-57
2023/04/22 05:59:54;;;;;;;2.72;1.60;;;;;;;;;;5055026;28;20126;-55
2023/04/22 06:02:20;;;;;;;2.35;1.80;;;;;;;;;;5054872;28;20490;-56
2023/04/22 06:04:46;;;;;;;2.42;1.75;;;;;;;;;;5054975;28;20025;-57
2023/04/22 06:07:12;;;;;;;2.15;1.55;;;;;;;;;;5054192;28;20106;-57
2023/04/22 06:09:38;;;;;;;3.03;2.33;;;;;;;;;;5055292;28;20017;-57
2023/04/22 06:12:05;;;;;;;1.92;1.27;;;;;;;;;;5054515;28;20503;-57
2023/04/22 06:14:30;;;;;;;2.65;1.52;;;;;;;;;;5055001;28;20371;-57
2023/04/22 06:16:56;;;;;;;2.47;1.73;;;;;;;;;;5054726;28;20025;-57
2023/04/22 06:19:23;;;;;;;2.05;1.17;;;;;;;;;;5054654;28;20112;-57
2023/04/22 06:21:48;;;;;;;2.55;1.45;;;;;;;;;;5054459;28;20418;-57
2023/04/22 06:24:14;;;;;;;1.98;1.20;;;;;;;;;;5054902;28;20025;-57
2023/04/22 06:26:40;;;;;;;2.67;1.45;;;;;;;;;;5054869;28;20492;-57
2023/04/22 06:29:06;;;;;;;2.13;1.20;;;;;;;;;;5054465;28;20461;-57
2023/04/22 06:31:32;;;;;;;2.90;1.25;;;;;;;;;;5054460;28;20029;-56
2023/04/22 06:33:58;;;;;;;5.30;2.10;;;;;;;;;;5054453;28;20064;-57
2023/04/22 06:36:25;;;;;;;2.40;1.23;;;;;;;;;;5054819;28;20107;-57
2023/04/22 06:38:51;;;;;;;2.88;2.03;;;;;;;;;;5054225;28;20438;-58
2023/04/22 06:41:17;;;;;;;1.73;1.02;;;;;;;;;;5054140;28;20064;-58
2023/04/22 06:43:43;;;;;;;3.95;1.55;;;;;;;;;;5054130;28;20378;-58
2023/04/22 06:46:09;;;;;;;2.72;1.20;;;;;;;;;;5054557;28;20029;-58
2023/04/22 06:48:35;;;;;;;1.90;1.17;;;;;;;;;;5054079;28;20082;-58
2023/04/22 06:51:01;;;;;;;2.05;1.02;;;;;;;;;;5054577;28;20072;-58
2023/04/22 06:53:27;;;;;;;2.30;1.17;;;;;;;;;;5054037;28;20484;-57
2023/04/22 06:55:53;;;;;;;1.90;1.20;;;;;;;;;;5054333;28;20025;-58
2023/04/22 06:58:19;;;;;;;2.42;1.33;;;;;;;;;;5054737;28;20064;-58
2023/04/22 07:00:45;;;;;;;1.92;1.25;;;;;;;;;;5053909;28;20037;-57
2023/04/22 07:03:11;;;;;;;2.45;1.35;;;;;;;;;;5054544;28;20035;-57
2023/04/22 07:05:37;;;;;;;1.65;0.93;;;;;;;;;;5054515;28;20455;-58
2023/04/22 07:08:03;;;;;;;5.13;1.67;;;;;;;;;;5054641;28;20025;-57
2023/04/22 07:10:29;;;;;;;2.65;1.52;;;;;;;;;;5053815;28;20357;-58
2023/04/22 07:12:55;;;;;;;2.80;1.92;;;;;;;;;;5053715;28;20052;-57
2023/04/22 07:15:21;;;;;;;1.98;1.27;;;;;;;;;;5054029;28;20053;-58
2023/04/22 07:17:47;;;;;;;2.13;1.40;;;;;;;;;;5053425;28;20067;-57
2023/04/22 07:20:13;;;;;;;1.85;1.15;;;;;;;;;;5053909;28;20375;-58
2023/04/22 07:22:39;;;;;;;2.13;1.52;;;;;;;;;;5053636;28;20025;-57
2023/04/22 07:25:06;;;;;;;2.40;1.20;;;;;;;;;;5053590;28;20039;-59
2023/04/22 07:27:32;;;;;;;3.30;1.20;;;;;;;;;;5054126;28;20467;-57
2023/04/22 07:29:58;;;;;;;2.58;1.42;;;;;;;;;;5054127;28;20029;-57
2023/04/22 07:32:25;;;;;;;2.03;1.35;;;;;;;;;;5053393;28;20082;-57
2023/04/22 07:34:51;;;;;;;1.98;1.42;;;;;;;;;;5053738;28;20032;-59
2023/04/22 07:37:16;;;;;;;2.97;1.23;;;;;;;;;;5054307;28;20021;-58
2023/04/22 07:39:42;;;;;;;2.15;1.23;;;;;;;;;;5053741;28;20051;-58
2023/04/22 07:42:08;;;;;;;1.48;0.90;;;;;;;;;;5053660;28;20029;-58
2023/04/22 07:44:34;;;;;;;2.33;1.02;;;;;;;;;;5053387;28;20025;-58
2023/04/22 07:47:00;;;;;;;1.92;1.13;;;;;;;;;;5054217;28;20063;-58
2023/04/22 07:49:26;;;;;;;1.42;0.93;;;;;;;;;;5053927;28;20029;-58
2023/04/22 07:51:52;;;;;;;2.85;1.98;;;;;;;;;;5053669;28;20037;-58
2023/04/22 07:54:18;;;;;;;2.38;1.45;;;;;;;;;;5053422;28;20025;-58
2023/04/22 07:56:44;;;;;;;2.22;1.17;;;;;;;;;;5054216;28;20412;-58
2023/04/22 07:59:10;;;;;;;2.65;1.65;;;;;;;;;;5053604;28;20028;-58
2023/04/22 08:01:36;;;;;;;2.30;1.33;;;;;;;;;;5053239;28;20158;-58
2023/04/22 08:04:02;;;;;;;2.60;1.45;;;;;;;;;;5053511;28;20017;-58
2023/04/22 08:06:28;;;;;;;2.13;1.38;;;;;;;;;;5053038;28;20070;-58
2023/04/22 08:08:54;;;;;;;1.75;1.00;;;;;;;;;;5053239;28;20124;-58
2023/04/22 08:11:20;;;;;;;1.95;1.10;;;;;;;;;;5053199;28;20033;-58
2023/04/22 08:13:46;;;;;;;1.88;1.05;;;;;;;;;;5052925;28;20033;-59
2023/04/22 08:16:12;;;;;;;2.33;1.40;;;;;;;;;;5053205;28;20366;-58
2023/04/22 08:18:38;;;;;;;2.03;0.70;;;;;;;;;;5053191;28;20025;-58
2023/04/22 08:21:04;;;;;;;1.70;0.85;;;;;;;;;;5053042;28;20124;-58
2023/04/22 08:23:30;;;;;;;1.20;0.70;;;;;;;;;;5053925;28;20128;-58
2023/04/22 08:25:56;;;;;;;2.17;0.93;;;;;;;;;;5053482;28;20495;-58
2023/04/22 08:28:22;;;;;;;1.50;0.80;;;;;;;;;;5053437;28;20079;-58
2023/04/22 08:30:48;;;;;;;1.77;0.98;;;;;;;;;;5055470;28;20103;-59
2023/04/22 08:33:14;;;;;;;1.58;0.85;;;;;;;;;;5056687;28;20029;-58
2023/04/22 08:35:40;;;;;;;4.70;1.88;;;;;;;;;;5057218;28;20333;-58
2023/04/22 08:38:06;;;;;;;1.02;0.50;;;;;;;;;;5056847;28;20025;-58
2023/04/22 08:40:33;;;;;;;1.63;0.80;;;;;;;;;;5056378;28;20513;-58
2023/04/22 08:42:59;;;;;;;1.65;0.77;;;;;;;;;;5056538;28;20059;-58
2023/04/22 08:45:26;;;;;;;3.53;0.50;;;;;;;;;;5057007;28;20075;-58
2023/04/22 08:47:53;;;;;;;0.98;0.55;;;;;;;;;;5056813;28;20040;-58
2023/04/22 08:50:21;;;;;;;1.13;0.60;;;;;;;;;;5056855;28;20079;-58
2023/04/22 08:52:47;;;;;;;1.33;0.63;;;;;;;;;;5056511;28;20025;-58
2023/04/22 08:55:13;;;;;;;0.75;0.47;;;;;;;;;;5056592;28;20021;-58
2023/04/22 08:57:39;;;;;;;1.00;0.52;;;;;;;;;;5056405;28;20025;-58
2023/04/22 09:00:07;;;;;;;1.02;0.47;;;;;;;;;;5056124;28;20033;-58
2023/04/22 09:02:33;;;;;;;1.40;0.60;;;;;;;;;;5056140;28;20048;-58
2023/04/22 09:05:01;;;;;;;0.95;0.50;;;;;;;;;;5056671;28;20029;-58
2023/04/22 09:07:27;;;;;;;2.55;0.80;;;;;;;;;;5056671;28;20064;-58
2023/04/22 09:09:57;;;;;;;1.50;1.00;;;;;;;;;;5055990;28;20021;-58
2023/04/22 09:12:24;;;;;;;1.20;0.50;;;;;;;;;;5056167;28;20391;-58
2023/04/22 09:14:50;;;;;;;1.10;0.63;;;;;;;;;;5056333;28;20068;-58
2023/04/22 09:17:17;;;;;;;0.85;0.40;;;;;;;;;;5055797;28;20371;-58
2023/04/22 09:19:43;;;;;;;1.73;0.93;;;;;;;;;;5056048;28;20025;-58
2023/04/22 09:22:13;;;;;;;1.75;0.98;;;;;;;;;;5056303;28;20355;-58
2023/04/22 09:24:41;;;;;;;0.90;0.55;;;;;;;;;;5055666;28;20025;-58
2023/04/22 09:27:07;;;;;;;2.20;0.90;;;;;;;;;;5055898;28;20021;-58
2023/04/22 09:29:33;;;;;;;1.45;0.63;;;;;;;;;;5055624;28;20021;-58
2023/04/22 09:31:59;;;;;;;1.45;0.70;;;;;;;;;;5055599;28;20446;-58
2023/04/22 09:34:26;;;;;;;1.52;0.70;;;;;;;;;;5055541;28;20036;-58
2023/04/22 09:36:53;;;;;;;1.63;0.80;;;;;;;;;;5056114;28;20446;-58
2023/04/22 09:39:19;;;;;;;1.45;0.88;;;;;;;;;;5055451;28;20075;-58
2023/04/22 09:41:53;;;;;;;2.13;0.90;;;;;;;;;;5055103;28;20390;-59
2023/04/22 09:44:19;;;;;;;1.33;0.50;;;;;;;;;;5055453;28;20053;-58
2023/04/22 09:46:49;;;;;;;1.25;0.50;;;;;;;;;;5055300;28;20060;-58
2023/04/22 09:49:15;;;;;;;2.20;0.80;;;;;;;;;;5055242;28;20193;-58
2023/04/22 09:51:41;;;;;;;1.10;0.60;;;;;;;;;;5055171;28;20059;-58
2023/04/22 09:54:09;;;;;;;1.35;0.60;;;;;;;;;;5055701;28;20466;-58
2023/04/22 09:56:41;;;;;;;1.83;1.13;;;;;;;;;;5055468;28;20021;-58
2023/04/22 09:59:08;;;;;;;1.45;0.73;;;;;;;;;;5054965;28;20021;-58
2023/04/22 10:01:39;;;;;;;1.17;0.68;;;;;;;;;;5055090;28;20044;-58
2023/04/22 10:04:05;;;;;;;1.65;0.80;;;;;;;;;;5054932;28;20025;-58
2023/04/22 10:06:32;;;;;;;0.93;0.50;;;;;;;;;;5055477;28;20021;-58
2023/04/22 10:08:59;;;;;;;2.00;0.98;;;;;;;;;;5055345;28;20074;-58
2023/04/22 10:11:25;;;;;;;2.08;0.88;;;;;;;;;;5054694;28;20545;-58
2023/04/22 10:13:51;;;;;;;1.70;1.10;;;;;;;;;;5054726;28;20482;-58
2023/04/22 10:16:19;;;;;;;1.17;0.52;;;;;;;;;;5055098;28;20021;-58
2023/04/22 10:18:45;;;;;;;1.30;0.75;;;;;;;;;;5054546;28;20021;-58
2023/04/22 10:21:12;;;;;;;1.38;0.70;;;;;;;;;;5054889;28;20036;-59
2023/04/22 10:23:38;;;;;;;1.17;0.50;;;;;;;;;;5054768;28;20100;-59
2023/04/22 10:26:04;;;;;;;1.02;0.40;;;;;;;;;;5055126;28;20110;-59
2023/04/22 10:28:31;;;;;;;0.90;0.40;;;;;;;;;;5054509;28;20029;-59
2023/04/22 10:30:57;;;;;;;1.20;0.55;;;;;;;;;;5054370;28;20060;-59
2023/04/22 10:33:23;;;;;;;0.88;0.40;;;;;;;;;;5054985;28;20025;-59
2023/04/22 10:36:08;;;;;;;0.70;0.35;;;;;;;;;;5053904;28;20355;-59
2023/04/22 10:38:38;;;;;;;1.88;0.68;;;;;;;;;;5054595;28;20083;-59
2023/04/22 10:41:04;;;;;;;1.58;0.82;;;;;;;;;;5054314;28;20029;-58
2023/04/22 10:43:54;;;;;;;1.45;0.50;;;;;;;;;;5054152;28;20111;-59
2023/04/22 10:46:43;;;;;;;0.73;0.30;;;;;;;;;;5054140;28;20053;-58
2023/04/22 10:49:10;;;;;;;1.10;0.50;;;;;;;;;;5050527;28;20025;-59
2023/04/22 10:51:45;;;;;;;0.65;0.40;;;;;;;;;;5054434;28;20036;-59
2023/04/22 10:57:02;;;;;;;0.70;0.30;;;;;;;;;;5054453;28;20120;-59
2023/04/22 10:59:28;;;;;;;0.80;0.32;;;;;;;;;;5054054;28;20032;-58
2023/04/22 11:01:54;;;;;;;1.23;0.50;;;;;;;;;;5054166;28;20040;-58
2023/04/22 11:04:21;;;;;;;0.95;0.38;;;;;;;;;;5053862;28;20020;-59
2023/04/22 11:07:06;;;;;;;1.35;0.65;;;;;;;;;;5054460;28;20371;-59
2023/04/22 11:09:32;;;;;;;0.70;0.28;;;;;;;;;;5053848;28;20090;-59
2023/04/22 11:12:17;;;;;;;0.65;0.22;;;;;;;;;;5053851;28;20056;-59
2023/04/22 11:14:43;;;;;;;1.17;0.55;;;;;;;;;;5054067;28;20468;-60
2023/04/22 11:17:09;;;;;;;0.80;0.30;;;;;;;;;;5053716;28;20021;-59
2023/04/22 11:19:35;;;;;;;1.65;0.60;;;;;;;;;;5053714;28;20363;-59
2023/04/22 11:22:01;;;;;;;0.77;0.40;;;;;;;;;;5053939;28;20025;-59
2023/04/22 11:24:27;;;;;;;1.50;0.50;;;;;;;;;;5053599;28;20025;-59
2023/04/22 11:26:55;;;;;;;2.03;0.55;;;;;;;;;;5053959;28;20403;-59
2023/04/22 11:29:22;;;;;;;3.30;1.38;;;;;;;;;;5053816;28;20452;-59
2023/04/22 11:31:48;;;;;;;0.77;0.40;;;;;;;;;;5054131;28;20037;-59
2023/04/22 11:34:14;;;;;;;1.25;0.65;;;;;;;;;;5053661;28;20096;-59
2023/04/22 11:36:44;;;;;;;1.83;0.60;;;;;;;;;;5054126;28;20044;-59
2023/04/22 11:39:13;;;;;;;1.00;0.40;;;;;;;;;;5054075;28;20028;-59
2023/04/22 11:41:42;;;;;;;1.23;0.55;;;;;;;;;;5052723;28;20032;-59
2023/04/22 11:44:08;;;;;;;1.02;0.47;;;;;;;;;;5053477;28;20082;-59
2023/04/22 11:46:38;;;;;;;1.80;0.60;;;;;;;;;;5053851;28;20116;-59
2023/04/22 11:49:16;;;;;;;2.42;0.70;;;;;;;;;;5054185;28;20029;-59
2023/04/22 11:51:55;;;;;;;1.40;0.70;;;;;;;;;;5053962;28;20078;-59
2023/04/22 11:54:31;;;;;;;1.27;0.57;;;;;;;;;;5053619;28;20130;-59
2023/04/22 11:56:57;;;;;;;0.95;0.40;;;;;;;;;;5053530;28;20021;-59
2023/04/22 11:59:24;;;;;;;1.45;0.70;;;;;;;;;;5053913;28;20436;-59
2023/04/22 12:01:51;;;;;;;1.35;0.57;;;;;;;;;;5053275;28;20455;-59
2023/04/22 12:04:17;;;;;;;1.15;0.50;;;;;;;;;;5053464;28;20510;-59
2023/04/22 12:06:43;;;;;;;1.27;0.60;;;;;;;;;;5057252;28;20147;-59
2023/04/22 12:09:09;;;;;;;1.60;0.73;;;;;;;;;;5056806;28;20370;-59
2023/04/22 12:11:35;;;;;;;1.17;0.45;;;;;;;;;;5056370;28;20382;-59
2023/04/22 12:14:07;;;;;;;1.10;0.50;;;;;;;;;;5057593;28;20103;-59
2023/04/22 12:16:40;;;;;;;2.55;0.45;;;;;;;;;;5057594;28;20024;-59
2023/04/22 12:19:06;;;;;;;1.45;0.65;;;;;;;;;;5056920;28;20029;-59
2023/04/22 12:21:32;;;;;;;1.63;0.75;;;;;;;;;;5057368;28;20033;-59
2023/04/22 12:24:06;;;;;;;0.98;0.52;;;;;;;;;;5056867;28;20050;-59
2023/04/22 12:26:32;;;;;;;1.08;0.47;;;;;;;;;;5057219;28;20508;-59
2023/04/22 12:28:59;;;;;;;1.02;0.40;;;;;;;;;;5057323;28;20021;-59
2023/04/22 12:31:25;;;;;;;1.05;0.50;;;;;;;;;;5056748;28;20124;-59
2023/04/22 12:33:51;;;;;;;0.65;0.35;;;;;;;;;;5056674;28;20021;-59
2023/04/22 12:36:19;;;;;;;1.20;0.50;;;;;;;;;;5056961;28;20104;-59
2023/04/22 12:38:45;;;;;;;1.50;0.50;;;;;;;;;;5056474;28;20033;-59
2023/04/22 12:41:11;;;;;;;0.90;0.63;;;;;;;;;;5056678;28;20115;-59
2023/04/22 12:43:38;;;;;;;1.30;0.50;;;;;;;;;;5056751;28;20072;-59
2023/04/22 12:46:04;;;;;;;1.08;0.45;;;;;;;;;;5056488;28;20057;-59
2023/04/22 12:48:30;;;;;;;1.08;0.50;;;;;;;;;;5056307;28;20057;-59
2023/04/22 12:50:57;;;;;;;2.95;1.15;;;;;;;;;;5056877;28;20032;-59
2023/04/22 12:53:23;;;;;;;1.05;0.40;;;;;;;;;;5056225;28;20020;-58
2023/04/22 12:55:49;;;;;;;0.73;0.35;;;;;;;;;;5057065;28;20075;-59
2023/04/22 12:58:15;;;;;;;1.30;0.65;;;;;;;;;;5056753;28;20033;-59
2023/04/22 13:00:41;;;;;;;3.45;0.82;;;;;;;;;;5056115;28;20043;-59
2023/04/22 13:03:07;;;;;;;1.38;0.68;;;;;;;;;;5056102;28;20464;-59
2023/04/22 13:05:33;;;;;;;0.90;0.40;;;;;;;;;;5056374;28;20036;-59
2023/04/22 13:07:59;;;;;;;2.70;1.30;;;;;;;;;;5056162;28;20027;-59
2023/04/22 13:10:27;;;;;;;1.00;0.40;;;;;;;;;;5056008;28;20028;-59
2023/04/22 13:12:53;;;;;;;1.63;0.93;;;;;;;;;;5055663;28;20025;-59
2023/04/22 13:15:19;;;;;;;1.33;0.52;;;;;;;;;;5055987;28;20444;-58
2023/04/22 13:17:45;;;;;;;1.25;0.57;;;;;;;;;;5056686;28;20028;-58
2023/04/22 13:20:13;;;;;;;2.47;0.63;;;;;;;;;;5056298;28;20162;-58
2023/04/22 13:22:39;;;;;;;1.77;0.75;;;;;;;;;;5055722;28;20021;-58
2023/04/22 13:25:05;;;;;;;3.58;0.88;;;;;;;;;;5056249;28;20055;-58
2023/04/22 13:27:32;;;;;;;1.08;0.47;;;;;;;;;;5056229;28;20325;-59
2023/04/22 13:29:57;;;;;;;0.90;0.40;;;;;;;;;;5055353;28;20029;-59
2023/04/22 13:32:23;;;;;;;0.95;0.30;;;;;;;;;;5055636;28;20013;-58
2023/04/22 13:34:49;;;;;;;1.90;0.88;;;;;;;;;;5055526;28;20017;-59
2023/04/22 13:37:18;;;;;;;0.80;0.43;;;;;;;;;;5056101;28;20025;-59
2023/04/22 13:39:44;;;;;;;1.25;0.57;;;;;;;;;;5055434;28;20031;-59
2023/04/22 13:42:10;;;;;;;2.15;0.57;;;;;;;;;;5055943;28;20446;-59
2023/04/22 13:44:35;;;;;;;0.80;0.40;;;;;;;;;;5055288;28;20028;-59
2023/04/22 13:47:02;;;;;;;1.20;0.70;;;;;;;;;;5055523;28;20021;-59
2023/04/22 13:49:28;;;;;;;1.00;0.40;;;;;;;;;;5055017;28;20021;-59
2023/04/22 13:51:54;;;;;;;1.15;0.57;;;;;;;;;;5055439;28;20025;-59
2023/04/22 13:54:20;;;;;;;0.98;0.50;;;;;;;;;;5055421;28;20363;-59
2023/04/22 13:56:46;;;;;;;1.35;0.57;;;;;;;;;;5055511;28;20021;-59
2023/04/22 13:59:12;;;;;;;1.63;0.50;;;;;;;;;;5054864;28;20055;-59
2023/04/22 14:01:38;;;;;;;2.15;0.47;;;;;;;;;;5054991;28;20379;-58
2023/04/22 14:04:04;;;;;;;0.82;0.55;;;;;;;;;;5055019;28;20082;-58
2023/04/22 14:06:30;;;;;;;1.48;0.70;;;;;;;;;;5055320;28;20052;-59
2023/04/22 14:08:56;;;;;;;1.15;0.68;;;;;;;;;;5054919;28;20452;-59
2023/04/22 14:11:22;;;;;;;0.88;0.40;;;;;;;;;;5054497;28;20024;-58
2023/04/22 14:13:48;;;;;;;0.95;0.43;;;;;;;;;;5054496;28;20025;-59
2023/04/22 14:16:14;;;;;;;1.48;0.70;;;;;;;;;;5055339;28;20025;-59
2023/04/22 14:18:40;;;;;;;0.98;0.68;;;;;;;;;;5054643;28;20025;-59
2023/04/22 14:21:10;;;;;;;0.85;0.40;;;;;;;;;;5055147;28;20036;-58
2023/04/22 14:23:37;;;;;;;0.90;0.40;;;;;;;;;;5054557;28;20020;-58
2023/04/22 14:26:04;;;;;;;1.20;0.52;;;;;;;;;;5054860;28;20132;-59
2023/04/22 14:28:30;;;;;;;0.98;0.52;;;;;;;;;;5053393;28;20021;-60
2023/04/22 14:30:56;;;;;;;1.75;1.23;;;;;;;;;;5054459;28;20063;-59
2023/04/22 14:33:23;;;;;;;1.23;0.70;;;;;;;;;;5054049;28;20057;-58
2023/04/22 14:35:49;;;;;;;1.25;0.47;;;;;;;;;;5054929;28;20021;-58
2023/04/22 14:38:15;;;;;;;0.90;0.40;;;;;;;;;;5054278;28;20032;-58
2023/04/22 14:40:41;;;;;;;0.88;0.55;;;;;;;;;;5054538;28;20029;-58